Time;durP1;ratioP1;P1;durP2;ratioP2;P2;SDS_P1;SDS_P2;PMS_P1;PMS_P2;Temp;Humidity;BMP_temperature;BMP_pressure;BME280_temperature;BME280_humidity;BME280_pressure;Samples;Min_cycle;Max_cycle;Signal;HPM_P1;HPM_P2
2023/08/25 00:01:01;;;;;;;9.83;7.07;;;;;;;;;;4994426;28;20777;-78
2023/08/25 00:03:27;;;;;;;7.50;6.67;;;;;;;;;;4994338;28;20470;-79
2023/08/25 00:05:53;;;;;;;7.70;7.00;;;;;;;;;;4994388;28;20199;-79
2023/08/25 00:08:22;;;;;;;6.97;6.37;;;;;;;;;;4994382;28;20449;-78
2023/08/25 00:10:49;;;;;;;8.37;7.57;;;;;;;;;;4994010;28;20931;-78
2023/08/25 00:13:15;;;;;;;8.13;7.30;;;;;;;;;;4994340;28;20407;-79
2023/08/25 00:15:42;;;;;;;13.33;7.77;;;;;;;;;;4976958;28;20418;-79
2023/08/25 00:18:08;;;;;;;7.73;6.53;;;;;;;;;;4994168;28;20546;-79
2023/08/25 00:20:36;;;;;;;7.73;6.30;;;;;;;;;;4997301;28;20989;-79
2023/08/25 00:23:02;;;;;;;6.53;5.93;;;;;;;;;;4993252;28;20419;-78
2023/08/25 00:25:28;;;;;;;7.30;6.50;;;;;;;;;;4993949;28;20477;-78
2023/08/25 00:27:54;;;;;;;7.00;6.40;;;;;;;;;;4993500;28;20895;-79
2023/08/25 00:30:20;;;;;;;9.20;7.57;;;;;;;;;;4993985;28;20233;-78
2023/08/25 00:32:46;;;;;;;10.20;8.07;;;;;;;;;;4994033;28;20447;-79
2023/08/25 00:35:12;;;;;;;8.07;7.30;;;;;;;;;;4970841;28;20279;-78
2023/08/25 00:37:38;;;;;;;9.10;7.60;;;;;;;;;;4973842;28;20792;-79
2023/08/25 00:40:04;;;;;;;8.10;7.50;;;;;;;;;;4974353;28;20173;-79
2023/08/25 00:42:29;;;;;;;9.30;8.43;;;;;;;;;;4974007;28;20183;-78
2023/08/25 00:45:05;;;;;;;8.13;7.33;;;;;;;;;;4974278;28;20482;-78
2023/08/25 00:47:31;;;;;;;7.97;7.17;;;;;;;;;;4974274;28;20197;-78
2023/08/25 00:49:57;;;;;;;7.83;7.10;;;;;;;;;;4974102;28;20507;-78
2023/08/25 00:52:23;;;;;;;8.50;7.80;;;;;;;;;;4974220;28;20411;-78
2023/08/25 00:54:52;;;;;;;8.57;7.40;;;;;;;;;;4973850;28;20431;-79
2023/08/25 00:57:18;;;;;;;16.63;8.87;;;;;;;;;;4973672;28;20558;-78
2023/08/25 00:59:45;;;;;;;7.30;6.67;;;;;;;;;;4974258;28;20428;-78
2023/08/25 01:02:11;;;;;;;8.60;7.67;;;;;;;;;;4974058;28;20429;-78
2023/08/25 01:04:38;;;;;;;10.30;7.67;;;;;;;;;;4974009;28;20481;-79
2023/08/25 01:07:04;;;;;;;8.67;7.83;;;;;;;;;;4974024;28;20418;-79
2023/08/25 01:09:30;;;;;;;8.83;6.70;;;;;;;;;;4974039;28;20210;-78
2023/08/25 01:11:56;;;;;;;7.93;7.13;;;;;;;;;;4973582;28;20821;-78
2023/08/25 01:14:43;;;;;;;8.43;7.67;;;;;;;;;;4973956;28;20420;-79
2023/08/25 01:17:15;;;;;;;7.67;7.00;;;;;;;;;;4972489;28;20423;-80
2023/08/25 01:19:56;;;;;;;7.90;7.20;;;;;;;;;;4973694;28;20790;-79
2023/08/25 01:22:25;;;;;;;7.53;6.93;;;;;;;;;;4973547;28;20435;-78
2023/08/25 01:24:53;;;;;;;9.47;8.67;;;;;;;;;;4974716;28;21097;-78
2023/08/25 01:27:19;;;;;;;8.27;7.47;;;;;;;;;;4963196;28;20507;-78
2023/08/25 01:29:45;;;;;;;7.43;6.57;;;;;;;;;;4964826;28;20412;-80
2023/08/25 01:32:11;;;;;;;8.57;7.80;;;;;;;;;;4963550;28;20424;-77
2023/08/25 01:34:37;;;;;;;8.47;7.67;;;;;;;;;;4965319;28;20515;-80
2023/08/25 01:37:05;;;;;;;8.57;6.90;;;;;;;;;;4968803;28;20424;-78
2023/08/25 01:39:31;;;;;;;8.63;7.93;;;;;;;;;;4967477;28;20956;-78
2023/08/25 01:41:59;;;;;;;10.60;7.37;;;;;;;;;;4967110;28;20423;-77
2023/08/25 01:44:25;;;;;;;9.20;7.23;;;;;;;;;;4968644;28;20463;-77
2023/08/25 01:46:54;;;;;;;7.27;6.67;;;;;;;;;;4967369;28;20443;-78
2023/08/25 01:49:21;;;;;;;7.73;7.03;;;;;;;;;;4951985;28;20497;-78
2023/08/25 01:51:48;;;;;;;8.17;7.20;;;;;;;;;;4965538;28;20429;-78
2023/08/25 01:54:14;;;;;;;7.07;6.47;;;;;;;;;;4967656;28;20408;-79
2023/08/25 01:56:40;;;;;;;8.57;7.77;;;;;;;;;;4967975;28;20415;-78
2023/08/25 01:59:06;;;;;;;8.83;7.53;;;;;;;;;;4966332;28;20221;-78
2023/08/25 02:01:32;;;;;;;7.90;7.10;;;;;;;;;;4967835;28;20442;-78
2023/08/25 02:03:58;;;;;;;8.47;7.70;;;;;;;;;;4967843;28;20483;-78
2023/08/25 02:06:24;;;;;;;8.53;7.53;;;;;;;;;;4966196;28;20408;-79
2023/08/25 02:08:50;;;;;;;9.23;8.20;;;;;;;;;;4967920;28;20984;-78
2023/08/25 02:11:16;;;;;;;9.23;8.30;;;;;;;;;;4967228;28;20416;-78
2023/08/25 02:13:42;;;;;;;12.60;6.90;;;;;;;;;;4966295;28;20227;-79
2023/08/25 02:16:08;;;;;;;7.60;6.90;;;;;;;;;;4966820;28;20909;-78
2023/08/25 02:18:34;;;;;;;9.17;8.27;;;;;;;;;;4964656;28;20191;-78
2023/08/25 02:21:00;;;;;;;9.10;8.20;;;;;;;;;;4977109;28;20203;-78
2023/08/25 02:23:26;;;;;;;8.00;6.83;;;;;;;;;;4976999;28;20876;-78
2023/08/25 02:25:52;;;;;;;10.27;8.70;;;;;;;;;;4976853;28;20461;-78
2023/08/25 02:28:18;;;;;;;8.77;7.07;;;;;;;;;;4977177;28;20415;-79
2023/08/25 02:30:44;;;;;;;9.43;8.40;;;;;;;;;;4977231;28;20555;-79
2023/08/25 02:33:10;;;;;;;9.77;8.90;;;;;;;;;;4977147;28;20588;-79
2023/08/25 02:35:36;;;;;;;11.17;8.47;;;;;;;;;;4977103;28;20178;-80
2023/08/25 02:38:04;;;;;;;10.63;9.73;;;;;;;;;;4976930;28;20281;-79
2023/08/25 02:40:30;;;;;;;9.70;8.67;;;;;;;;;;4976663;28;20507;-79
2023/08/25 02:42:56;;;;;;;9.80;8.90;;;;;;;;;;4976926;28;20782;-80
2023/08/25 02:45:23;;;;;;;11.10;10.10;;;;;;;;;;4976070;28;20499;-78
2023/08/25 02:47:49;;;;;;;9.03;8.33;;;;;;;;;;4975310;28;20455;-80
2023/08/25 02:50:15;;;;;;;9.23;8.40;;;;;;;;;;4976151;28;20450;-80
2023/08/25 02:52:41;;;;;;;10.43;8.73;;;;;;;;;;4976748;28;20506;-78
2023/08/25 02:55:07;;;;;;;11.67;10.47;;;;;;;;;;4976711;28;20909;-79
2023/08/25 02:57:33;;;;;;;11.03;9.97;;;;;;;;;;4976042;28;20419;-80
2023/08/25 02:59:59;;;;;;;13.53;11.00;;;;;;;;;;4976719;28;20439;-78
2023/08/25 03:02:25;;;;;;;11.63;9.77;;;;;;;;;;4976584;28;20585;-78
2023/08/25 03:04:51;;;;;;;9.70;8.60;;;;;;;;;;4976360;28;20215;-78
2023/08/25 03:07:17;;;;;;;10.20;9.23;;;;;;;;;;4976467;28;20179;-78
2023/08/25 03:09:43;;;;;;;12.53;9.90;;;;;;;;;;4976500;28;20653;-79
2023/08/25 03:12:09;;;;;;;11.17;9.97;;;;;;;;;;4976100;28;20907;-77
2023/08/25 03:14:34;;;;;;;11.23;10.13;;;;;;;;;;4975123;28;20271;-78
2023/08/25 03:17:00;;;;;;;14.60;10.40;;;;;;;;;;4976337;28;20186;-80
2023/08/25 03:19:26;;;;;;;10.87;9.97;;;;;;;;;;4976220;28;20209;-78
2023/08/25 03:21:52;;;;;;;10.90;9.80;;;;;;;;;;4976132;28;20219;-80
2023/08/25 03:24:18;;;;;;;10.43;9.50;;;;;;;;;;4976190;28;20180;-79
2023/08/25 03:26:44;;;;;;;10.43;9.47;;;;;;;;;;4975742;28;20531;-79
2023/08/25 03:29:10;;;;;;;9.53;8.53;;;;;;;;;;4976102;28;20176;-79
2023/08/25 03:31:36;;;;;;;11.83;10.80;;;;;;;;;;4976056;28;20186;-78
2023/08/25 03:34:02;;;;;;;11.47;10.30;;;;;;;;;;4974590;28;20680;-79
2023/08/25 03:36:30;;;;;;;9.90;9.10;;;;;;;;;;4976003;28;20415;-79
2023/08/25 03:38:55;;;;;;;12.17;10.10;;;;;;;;;;4975963;28;20459;-79
2023/08/25 03:41:21;;;;;;;10.30;9.20;;;;;;;;;;4975524;28;20416;-80
2023/08/25 03:43:48;;;;;;;12.07;9.20;;;;;;;;;;4975792;28;20176;-79
2023/08/25 03:46:14;;;;;;;12.00;9.47;;;;;;;;;;4975729;28;20420;-79
2023/08/25 03:48:40;;;;;;;9.50;8.50;;;;;;;;;;4975661;28;20422;-79
2023/08/25 03:51:05;;;;;;;12.40;10.60;;;;;;;;;;4975590;28;20208;-79
2023/08/25 03:53:31;;;;;;;10.00;9.10;;;;;;;;;;4975562;28;20696;-79
2023/08/25 03:55:57;;;;;;;14.43;9.83;;;;;;;;;;4975282;28;20193;-79
2023/08/25 03:58:23;;;;;;;13.63;10.17;;;;;;;;;;4975009;28;20220;-79
2023/08/25 04:00:55;;;;;;;10.67;9.87;;;;;;;;;;4974188;28;20655;-79
2023/08/25 04:03:21;;;;;;;11.20;10.20;;;;;;;;;;4975335;28;20928;-78
2023/08/25 04:05:48;;;;;;;10.30;9.23;;;;;;;;;;4975453;28;20438;-79
2023/08/25 04:08:14;;;;;;;11.17;10.07;;;;;;;;;;4975381;28;20185;-79
2023/08/25 04:10:41;;;;;;;11.77;10.20;;;;;;;;;;4974960;28;20415;-79
2023/08/25 04:13:07;;;;;;;9.50;8.60;;;;;;;;;;4975259;28;20404;-79
2023/08/25 04:15:33;;;;;;;10.53;9.43;;;;;;;;;;4973862;28;20505;-79
2023/08/25 04:17:58;;;;;;;11.10;10.10;;;;;;;;;;4975118;28;20412;-79
2023/08/25 04:20:25;;;;;;;11.23;10.20;;;;;;;;;;4975215;28;20207;-79
2023/08/25 04:22:51;;;;;;;12.00;10.83;;;;;;;;;;4975114;28;20187;-78
2023/08/25 04:25:17;;;;;;;13.33;11.10;;;;;;;;;;4974701;28;20419;-78
2023/08/25 04:27:43;;;;;;;11.00;10.00;;;;;;;;;;4974975;28;20180;-79
2023/08/25 04:30:09;;;;;;;12.40;11.13;;;;;;;;;;4973723;28;20689;-79
2023/08/25 04:32:35;;;;;;;11.97;10.27;;;;;;;;;;4973732;28;20184;-78
2023/08/25 04:35:00;;;;;;;11.97;10.87;;;;;;;;;;4974748;28;20673;-79
2023/08/25 04:37:26;;;;;;;14.50;11.80;;;;;;;;;;4974823;28;20542;-79
2023/08/25 04:39:55;;;;;;;13.77;11.83;;;;;;;;;;4974779;28;20703;-79
2023/08/25 04:42:20;;;;;;;12.97;11.37;;;;;;;;;;4970409;28;20187;-79
2023/08/25 04:44:47;;;;;;;15.60;11.23;;;;;;;;;;4974653;28;20432;-79
2023/08/25 04:47:13;;;;;;;13.47;12.07;;;;;;;;;;4961787;28;20592;-78
2023/08/25 04:49:39;;;;;;;16.00;14.50;;;;;;;;;;4973732;28;20422;-79
2023/08/25 04:52:05;;;;;;;14.00;12.60;;;;;;;;;;4966116;28;20227;-80
2023/08/25 04:54:31;;;;;;;13.20;12.00;;;;;;;;;;4965397;28;20485;-78
2023/08/25 04:56:57;;;;;;;15.10;13.70;;;;;;;;;;4962422;28;20412;-79
2023/08/25 04:59:24;;;;;;;15.87;13.40;;;;;;;;;;4955044;28;20993;-78
2023/08/25 05:01:50;;;;;;;15.20;13.80;;;;;;;;;;4956245;28;20181;-80
2023/08/25 05:04:16;;;;;;;15.63;13.83;;;;;;;;;;4966900;28;20912;-78
2023/08/25 05:06:41;;;;;;;14.03;12.70;;;;;;;;;;4966334;28;20184;-79
2023/08/25 05:09:07;;;;;;;14.43;12.83;;;;;;;;;;4965291;28;20433;-79
2023/08/25 05:11:34;;;;;;;15.17;13.77;;;;;;;;;;4964206;28;20180;-78
2023/08/25 05:14:00;;;;;;;14.37;12.87;;;;;;;;;;4971132;28;20854;-78
2023/08/25 05:16:26;;;;;;;14.40;13.00;;;;;;;;;;4971746;28;20419;-78
2023/08/25 05:18:52;;;;;;;14.60;13.10;;;;;;;;;;4972439;28;21015;-78
2023/08/25 05:21:18;;;;;;;15.87;14.37;;;;;;;;;;4974038;28;20188;-79
2023/08/25 05:23:48;;;;;;;15.67;13.87;;;;;;;;;;4960253;28;20189;-78
2023/08/25 05:26:14;;;;;;;17.53;15.73;;;;;;;;;;4937420;28;20970;-78
2023/08/25 05:28:40;;;;;;;15.13;13.73;;;;;;;;;;4954670;28;20424;-78
2023/08/25 05:31:06;;;;;;;16.77;15.17;;;;;;;;;;4964362;28;20498;-78
2023/08/25 05:33:32;;;;;;;15.63;14.20;;;;;;;;;;4972817;28;20222;-78
2023/08/25 05:35:58;;;;;;;18.90;14.23;;;;;;;;;;4972912;28;20459;-78
2023/08/25 05:38:24;;;;;;;16.37;13.20;;;;;;;;;;4974021;28;20179;-78
2023/08/25 05:40:50;;;;;;;17.43;13.03;;;;;;;;;;4972683;28;20177;-78
2023/08/25 05:43:16;;;;;;;16.07;14.30;;;;;;;;;;4954622;28;20408;-78
2023/08/25 05:45:42;;;;;;;17.77;15.03;;;;;;;;;;4954677;28;20181;-78
2023/08/25 05:48:08;;;;;;;16.27;14.53;;;;;;;;;;4954692;29;20182;-78
2023/08/25 05:50:35;;;;;;;14.60;13.17;;;;;;;;;;4954651;28;20409;-78
2023/08/25 05:53:02;;;;;;;15.27;13.63;;;;;;;;;;4954606;28;20519;-78
2023/08/25 05:55:28;;;;;;;15.50;14.10;;;;;;;;;;4954120;28;20529;-78
2023/08/25 05:57:54;;;;;;;15.50;14.03;;;;;;;;;;4953119;28;20463;-78
2023/08/25 06:00:20;;;;;;;15.93;14.23;;;;;;;;;;4954480;28;20950;-78
2023/08/25 06:02:46;;;;;;;15.77;14.23;;;;;;;;;;4954494;28;20172;-78
2023/08/25 06:05:12;;;;;;;20.77;14.80;;;;;;;;;;4954498;28;20239;-78
2023/08/25 06:07:39;;;;;;;15.53;14.17;;;;;;;;;;4954485;28;20522;-78
2023/08/25 06:10:05;;;;;;;15.47;13.93;;;;;;;;;;4954176;29;20419;-78
2023/08/25 06:12:31;;;;;;;15.50;13.93;;;;;;;;;;4959958;28;20426;-78
2023/08/25 06:14:57;;;;;;;18.13;14.67;;;;;;;;;;4993093;28;20485;-78
2023/08/25 06:17:23;;;;;;;18.30;15.93;;;;;;;;;;4993066;28;20219;-78
2023/08/25 06:19:48;;;;;;;17.17;15.40;;;;;;;;;;4993387;28;20422;-78
2023/08/25 06:22:14;;;;;;;17.87;15.77;;;;;;;;;;4996723;28;20404;-79
2023/08/25 06:24:40;;;;;;;17.63;15.90;;;;;;;;;;4996518;28;20766;-78
2023/08/25 06:27:07;;;;;;;17.23;15.40;;;;;;;;;;4996402;28;20178;-78
2023/08/25 06:29:33;;;;;;;17.27;15.47;;;;;;;;;;4996613;28;20194;-79
2023/08/25 06:31:58;;;;;;;18.83;17.03;;;;;;;;;;4996445;28;20411;-78
2023/08/25 06:34:24;;;;;;;23.40;17.47;;;;;;;;;;4996372;28;20622;-78
2023/08/25 06:36:50;;;;;;;19.27;17.27;;;;;;;;;;4996472;28;20229;-78
2023/08/25 06:39:16;;;;;;;21.27;19.10;;;;;;;;;;4996458;28;20171;-78
2023/08/25 06:41:42;;;;;;;23.00;20.57;;;;;;;;;;4996012;28;20179;-77
2023/08/25 06:44:08;;;;;;;22.60;20.40;;;;;;;;;;4996284;28;20174;-78
2023/08/25 06:46:34;;;;;;;21.83;18.87;;;;;;;;;;4996339;28;20202;-78
2023/08/25 06:49:00;;;;;;;22.87;20.37;;;;;;;;;;4996297;28;20181;-77
2023/08/25 06:51:26;;;;;;;22.27;20.13;;;;;;;;;;4996189;28;20650;-78
2023/08/25 06:53:52;;;;;;;25.83;23.30;;;;;;;;;;4996113;28;20202;-77
2023/08/25 06:56:18;;;;;;;24.67;22.37;;;;;;;;;;4995776;28;20418;-74
2023/08/25 06:58:43;;;;;;;23.30;20.93;;;;;;;;;;4995937;28;20504;-78
2023/08/25 07:01:10;;;;;;;23.10;20.80;;;;;;;;;;4996044;28;20674;-78
2023/08/25 07:03:36;;;;;;;23.63;21.37;;;;;;;;;;4995927;28;20395;-78
2023/08/25 07:06:05;;;;;;;22.30;20.23;;;;;;;;;;4995931;28;20509;-78
2023/08/25 07:08:31;;;;;;;22.00;19.80;;;;;;;;;;4995964;28;20450;-78
2023/08/25 07:10:56;;;;;;;21.30;19.17;;;;;;;;;;4995519;28;20508;-78
2023/08/25 07:13:22;;;;;;;19.73;17.83;;;;;;;;;;4995832;28;20250;-78
2023/08/25 07:15:49;;;;;;;19.47;17.53;;;;;;;;;;4995852;28;20176;-78
2023/08/25 07:18:15;;;;;;;20.47;18.57;;;;;;;;;;4995782;28;20568;-78
2023/08/25 07:20:41;;;;;;;18.97;17.33;;;;;;;;;;4995751;28;20419;-78
2023/08/25 07:23:07;;;;;;;20.20;18.37;;;;;;;;;;4995606;28;20195;-79
2023/08/25 07:25:33;;;;;;;21.90;19.87;;;;;;;;;;4977858;28;20675;-78
2023/08/25 07:27:59;;;;;;;20.93;18.93;;;;;;;;;;4995697;28;20203;-79
2023/08/25 07:30:25;;;;;;;24.40;22.00;;;;;;;;;;4995518;28;20411;-78
2023/08/25 07:32:51;;;;;;;23.37;21.30;;;;;;;;;;4994907;28;20178;-80
2023/08/25 07:35:17;;;;;;;27.00;24.37;;;;;;;;;;4977975;28;20524;-77
2023/08/25 07:37:43;;;;;;;24.93;22.67;;;;;;;;;;4995215;28;20266;-78
2023/08/25 07:40:10;;;;;;;27.43;24.73;;;;;;;;;;4994887;28;20437;-77
2023/08/25 07:42:36;;;;;;;26.60;22.17;;;;;;;;;;4995299;28;20902;-77
2023/08/25 07:45:02;;;;;;;24.07;21.97;;;;;;;;;;4995198;28;20425;-78
2023/08/25 07:47:28;;;;;;;21.97;20.03;;;;;;;;;;4995098;28;20173;-77
2023/08/25 07:49:54;;;;;;;23.73;21.33;;;;;;;;;;4994986;28;20918;-79
2023/08/25 07:52:20;;;;;;;21.07;19.17;;;;;;;;;;4995057;28;20179;-78
2023/08/25 07:54:46;;;;;;;21.20;19.10;;;;;;;;;;4994608;28;20638;-78
2023/08/25 07:57:21;;;;;;;19.07;17.23;;;;;;;;;;4995051;28;20917;-78
2023/08/25 07:59:47;;;;;;;20.63;18.63;;;;;;;;;;4994955;28;20187;-78
2023/08/25 08:02:16;;;;;;;19.00;17.10;;;;;;;;;;4994390;28;20436;-78
2023/08/25 08:04:41;;;;;;;19.70;17.10;;;;;;;;;;4994814;28;20418;-77
2023/08/25 08:07:07;;;;;;;19.43;17.40;;;;;;;;;;4994970;28;20417;-78
2023/08/25 08:09:33;;;;;;;19.17;17.17;;;;;;;;;;4994543;28;20182;-78
2023/08/25 08:11:59;;;;;;;20.53;18.60;;;;;;;;;;4994821;28;20233;-78
2023/08/25 08:14:25;;;;;;;19.80;16.87;;;;;;;;;;4994635;28;20484;-78
2023/08/25 08:16:54;;;;;;;19.87;17.80;;;;;;;;;;4994575;28;20635;-78
2023/08/25 08:19:20;;;;;;;21.60;19.40;;;;;;;;;;4994569;28;20449;-78
2023/08/25 08:21:46;;;;;;;19.87;17.73;;;;;;;;;;4994577;28;20416;-78
2023/08/25 08:24:12;;;;;;;19.87;17.93;;;;;;;;;;4994468;28;20199;-78
2023/08/25 08:26:40;;;;;;;18.13;16.40;;;;;;;;;;4994169;28;20176;-78
2023/08/25 08:29:06;;;;;;;21.30;19.20;;;;;;;;;;4994396;28;20408;-78
2023/08/25 08:31:32;;;;;;;18.73;16.93;;;;;;;;;;4994375;28;20424;-77
2023/08/25 08:33:57;;;;;;;21.07;18.93;;;;;;;;;;4994312;28;20604;-78
2023/08/25 08:36:23;;;;;;;19.33;17.57;;;;;;;;;;4994311;28;20186;-79
2023/08/25 08:38:50;;;;;;;17.40;15.70;;;;;;;;;;4994249;28;20270;-78
2023/08/25 08:41:16;;;;;;;17.43;15.63;;;;;;;;;;4993815;28;20963;-77
2023/08/25 08:43:45;;;;;;;14.27;12.87;;;;;;;;;;4975754;28;20430;-78
2023/08/25 08:46:14;;;;;;;15.37;13.97;;;;;;;;;;4993929;28;20411;-78
2023/08/25 08:48:41;;;;;;;15.40;13.90;;;;;;;;;;4993941;28;20419;-77
2023/08/25 08:51:07;;;;;;;14.77;12.63;;;;;;;;;;4994023;28;20415;-77
2023/08/25 08:53:33;;;;;;;16.17;14.07;;;;;;;;;;4994029;28;20495;-78
2023/08/25 08:55:59;;;;;;;15.83;14.20;;;;;;;;;;4993519;28;20430;-78
2023/08/25 08:58:25;;;;;;;14.73;12.20;;;;;;;;;;4976081;28;20724;-79
2023/08/25 09:00:52;;;;;;;16.87;11.10;;;;;;;;;;4993892;28;20465;-78
2023/08/25 09:03:20;;;;;;;11.70;10.63;;;;;;;;;;4993908;28;20255;-78
2023/08/25 09:05:47;;;;;;;10.80;9.70;;;;;;;;;;4993833;28;20399;-80
2023/08/25 09:08:14;;;;;;;11.27;10.20;;;;;;;;;;4976355;28;20415;-81
2023/08/25 09:10:40;;;;;;;14.63;11.23;;;;;;;;;;4993421;28;20509;-78
2023/08/25 09:13:06;;;;;;;10.50;9.40;;;;;;;;;;4976415;28;20427;-79
2023/08/25 09:15:33;;;;;;;10.83;9.80;;;;;;;;;;4993663;28;20535;-79
2023/08/25 09:18:00;;;;;;;11.40;10.30;;;;;;;;;;4976263;28;20995;-80
2023/08/25 09:20:28;;;;;;;13.40;12.00;;;;;;;;;;4993649;28;20445;-80
2023/08/25 09:22:55;;;;;;;13.93;12.50;;;;;;;;;;4993580;28;20407;-80
2023/08/25 09:25:24;;;;;;;12.63;11.40;;;;;;;;;;4993226;28;20419;-78
2023/08/25 09:28:00;;;;;;;12.93;11.63;;;;;;;;;;4976226;28;20474;-80
2023/08/25 09:30:42;;;;;;;12.23;11.10;;;;;;;;;;4993459;28;20920;-80
2023/08/25 09:33:09;;;;;;;13.43;12.03;;;;;;;;;;4993542;28;20446;-80
2023/08/25 09:35:36;;;;;;;16.00;13.70;;;;;;;;;;4993525;28;20509;-79
2023/08/25 09:38:02;;;;;;;14.90;13.50;;;;;;;;;;4993381;28;20453;-78
2023/08/25 09:40:29;;;;;;;13.80;12.47;;;;;;;;;;4993168;28;20422;-80
2023/08/25 09:43:02;;;;;;;13.80;11.80;;;;;;;;;;4975996;28;20423;-81
2023/08/25 09:45:29;;;;;;;12.63;11.50;;;;;;;;;;4993472;28;20501;-81
2023/08/25 09:48:05;;;;;;;14.27;12.80;;;;;;;;;;4993356;28;20767;-79
2023/08/25 09:50:35;;;;;;;14.13;12.73;;;;;;;;;;4991046;28;20413;-76
2023/08/25 09:53:02;;;;;;;14.67;13.20;;;;;;;;;;4947826;28;20460;-79
2023/08/25 09:55:28;;;;;;;14.60;13.20;;;;;;;;;;4955619;28;20886;-80
2023/08/25 09:57:54;;;;;;;13.23;11.87;;;;;;;;;;4957006;28;20453;-79
2023/08/25 10:00:20;;;;;;;13.20;12.00;;;;;;;;;;4958447;28;20831;-80
2023/08/25 10:02:46;;;;;;;12.30;11.20;;;;;;;;;;4958476;28;20413;-80
2023/08/25 10:05:12;;;;;;;13.23;11.93;;;;;;;;;;4958409;28;20443;-80
2023/08/25 10:07:38;;;;;;;14.20;12.83;;;;;;;;;;4958238;28;20404;-80
2023/08/25 10:10:04;;;;;;;11.83;10.70;;;;;;;;;;4957833;29;20428;-80
2023/08/25 10:12:32;;;;;;;11.77;10.73;;;;;;;;;;4958176;28;20416;-79
2023/08/25 10:14:59;;;;;;;12.40;10.63;;;;;;;;;;4958015;28;20475;-81
2023/08/25 10:17:26;;;;;;;9.90;9.00;;;;;;;;;;4958171;28;20441;-80
2023/08/25 10:19:55;;;;;;;9.70;8.17;;;;;;;;;;4958064;28;20413;-80
2023/08/25 10:22:22;;;;;;;11.33;10.20;;;;;;;;;;4958103;28;20538;-80
2023/08/25 10:24:48;;;;;;;12.87;10.63;;;;;;;;;;4957502;28;20785;-79
2023/08/25 10:27:14;;;;;;;10.40;9.30;;;;;;;;;;4957854;28;20494;-79
2023/08/25 10:29:40;;;;;;;13.47;12.27;;;;;;;;;;4957971;28;20424;-80
2023/08/25 10:32:07;;;;;;;12.87;11.03;;;;;;;;;;4962605;28;20420;-79
2023/08/25 10:34:34;;;;;;;12.63;11.37;;;;;;;;;;4957743;28;20989;-77
2023/08/25 10:37:10;;;;;;;14.10;11.20;;;;;;;;;;4956968;28;20412;-76
2023/08/25 10:39:50;;;;;;;12.80;11.70;;;;;;;;;;4957554;28;20781;-79
2023/08/25 10:42:34;;;;;;;13.57;12.40;;;;;;;;;;4957614;28;20790;-78
2023/08/25 10:45:08;;;;;;;12.50;11.20;;;;;;;;;;4984368;28;20417;-78
2023/08/25 10:47:41;;;;;;;14.23;12.87;;;;;;;;;;4996269;28;20453;-78
2023/08/25 10:50:07;;;;;;;11.80;10.70;;;;;;;;;;4996273;28;20930;-77
2023/08/25 10:52:33;;;;;;;10.73;9.73;;;;;;;;;;4978659;28;20423;-79
2023/08/25 10:55:19;;;;;;;13.30;12.20;;;;;;;;;;4995644;28;20470;-77
2023/08/25 10:57:50;;;;;;;13.07;10.73;;;;;;;;;;4995735;28;20468;-79
2023/08/25 11:00:27;;;;;;;13.93;12.53;;;;;;;;;;4996003;28;20427;-78
2023/08/25 11:02:53;;;;;;;15.10;11.23;;;;;;;;;;4996000;28;20407;-78
2023/08/25 11:05:31;;;;;;;11.60;10.37;;;;;;;;;;4995795;28;20977;-77
2023/08/25 11:07:58;;;;;;;12.87;11.77;;;;;;;;;;4994824;28;20706;-78
2023/08/25 11:10:24;;;;;;;13.37;12.23;;;;;;;;;;4995571;28;20472;-79
2023/08/25 11:12:54;;;;;;;13.73;12.43;;;;;;;;;;4995771;28;20480;-78
2023/08/25 11:15:23;;;;;;;14.00;12.60;;;;;;;;;;4995786;28;20482;-79
2023/08/25 11:17:49;;;;;;;12.37;11.27;;;;;;;;;;4995814;28;20414;-79
2023/08/25 11:20:18;;;;;;;12.97;11.70;;;;;;;;;;4995701;28;20427;-77
2023/08/25 11:22:54;;;;;;;12.83;11.70;;;;;;;;;;4995702;28;20411;-76
2023/08/25 11:25:20;;;;;;;13.47;10.90;;;;;;;;;;4995149;28;20422;-77
2023/08/25 11:27:49;;;;;;;13.73;12.43;;;;;;;;;;4995486;28;20935;-76
2023/08/25 11:30:16;;;;;;;12.87;11.57;;;;;;;;;;4995494;28;20423;-77
2023/08/25 11:32:42;;;;;;;11.83;10.73;;;;;;;;;;4977678;28;20453;-77
2023/08/25 11:35:09;;;;;;;12.77;11.47;;;;;;;;;;4995170;28;20480;-77
2023/08/25 11:37:35;;;;;;;12.90;11.60;;;;;;;;;;4995363;28;20415;-77
2023/08/25 11:40:01;;;;;;;13.30;12.00;;;;;;;;;;4994990;28;20427;-76
2023/08/25 11:42:28;;;;;;;12.43;11.27;;;;;;;;;;4995480;28;20440;-77
2023/08/25 11:44:54;;;;;;;13.27;10.80;;;;;;;;;;4977776;28;20651;-79
2023/08/25 11:47:22;;;;;;;11.93;10.70;;;;;;;;;;4995242;28;20459;-77
2023/08/25 11:49:50;;;;;;;13.60;12.20;;;;;;;;;;4995210;28;20178;-77
2023/08/25 11:52:17;;;;;;;11.97;10.77;;;;;;;;;;4995116;28;20764;-77
2023/08/25 11:54:46;;;;;;;13.20;11.93;;;;;;;;;;4994673;28;20816;-77
2023/08/25 11:57:12;;;;;;;13.07;11.77;;;;;;;;;;4977571;28;20792;-77
2023/08/25 11:59:47;;;;;;;13.80;12.50;;;;;;;;;;4994878;28;20492;-77
2023/08/25 12:02:19;;;;;;;13.30;11.80;;;;;;;;;;4994890;28;20515;-76
2023/08/25 12:04:54;;;;;;;11.70;10.50;;;;;;;;;;4994862;28;20492;-77
2023/08/25 12:07:23;;;;;;;13.17;11.57;;;;;;;;;;4994813;28;20428;-77
2023/08/25 12:09:54;;;;;;;12.53;11.33;;;;;;;;;;4976980;28;20410;-77
2023/08/25 12:12:21;;;;;;;12.90;11.60;;;;;;;;;;4994593;28;20487;-77
2023/08/25 12:14:50;;;;;;;13.27;11.90;;;;;;;;;;4994688;28;20485;-77
2023/08/25 12:17:24;;;;;;;13.40;12.20;;;;;;;;;;4994682;28;20422;-77
2023/08/25 12:19:50;;;;;;;11.40;10.30;;;;;;;;;;4977076;28;20422;-76
2023/08/25 12:22:16;;;;;;;12.60;11.53;;;;;;;;;;4994522;28;20410;-77
2023/08/25 12:24:42;;;;;;;11.77;10.67;;;;;;;;;;4994142;28;20443;-77
2023/08/25 12:27:08;;;;;;;12.97;11.57;;;;;;;;;;4994405;28;20183;-77
2023/08/25 12:29:34;;;;;;;12.03;10.67;;;;;;;;;;4994354;28;20408;-77
2023/08/25 12:32:00;;;;;;;12.53;9.37;;;;;;;;;;4994342;28;20424;-76
2023/08/25 12:34:26;;;;;;;11.60;10.37;;;;;;;;;;4994232;28;20216;-77
2023/08/25 12:36:52;;;;;;;13.83;12.53;;;;;;;;;;4994350;28;20411;-78
2023/08/25 12:39:20;;;;;;;15.50;12.50;;;;;;;;;;4993930;28;20783;-77
2023/08/25 12:41:46;;;;;;;13.20;10.60;;;;;;;;;;4976677;28;20186;-77
2023/08/25 12:44:13;;;;;;;11.53;10.53;;;;;;;;;;4994136;28;20422;-77
2023/08/25 12:46:42;;;;;;;15.13;11.70;;;;;;;;;;4994049;28;20648;-77
2023/08/25 12:49:08;;;;;;;14.07;12.20;;;;;;;;;;4994047;28;20427;-77
2023/08/25 12:51:34;;;;;;;13.50;12.20;;;;;;;;;;4994060;28;20470;-77
2023/08/25 12:54:00;;;;;;;15.70;14.00;;;;;;;;;;4993598;28;20470;-76
2023/08/25 12:56:26;;;;;;;12.50;11.30;;;;;;;;;;4994008;28;20419;-76
2023/08/25 12:58:53;;;;;;;13.60;11.27;;;;;;;;;;4973149;28;20474;-78
2023/08/25 13:01:19;;;;;;;12.60;11.13;;;;;;;;;;4974429;28;20180;-78
2023/08/25 13:03:45;;;;;;;13.73;12.43;;;;;;;;;;4974462;28;20414;-79
2023/08/25 13:06:11;;;;;;;16.70;13.70;;;;;;;;;;4974545;28;20419;-76
2023/08/25 13:08:37;;;;;;;16.70;14.90;;;;;;;;;;4974123;28;20505;-76
2023/08/25 13:11:04;;;;;;;16.67;15.07;;;;;;;;;;4973106;28;20443;-80
2023/08/25 13:13:29;;;;;;;16.00;14.33;;;;;;;;;;4974332;28;20169;-77
2023/08/25 13:15:56;;;;;;;16.57;13.33;;;;;;;;;;4974228;28;20466;-77
2023/08/25 13:18:22;;;;;;;15.33;13.73;;;;;;;;;;4974278;28;20171;-80
2023/08/25 13:20:48;;;;;;;18.07;16.17;;;;;;;;;;4973027;28;20772;-77
2023/08/25 13:23:14;;;;;;;20.33;16.10;;;;;;;;;;4974232;28;20415;-79
2023/08/25 13:25:40;;;;;;;19.67;17.60;;;;;;;;;;4972567;28;20412;-77
2023/08/25 13:28:07;;;;;;;16.40;14.70;;;;;;;;;;4974185;28;20586;-80
2023/08/25 13:30:33;;;;;;;17.27;15.47;;;;;;;;;;4973705;28;20259;-79
2023/08/25 13:32:59;;;;;;;17.80;15.50;;;;;;;;;;4974175;28;20514;-77
2023/08/25 13:35:25;;;;;;;14.23;12.83;;;;;;;;;;4974060;28;20560;-77
2023/08/25 13:37:51;;;;;;;17.40;13.80;;;;;;;;;;4947594;28;20187;-77
2023/08/25 13:40:17;;;;;;;14.53;13.33;;;;;;;;;;4954176;28;20433;-80
2023/08/25 13:42:43;;;;;;;15.73;14.07;;;;;;;;;;4954750;29;20239;-78
2023/08/25 13:45:09;;;;;;;16.87;15.27;;;;;;;;;;4951696;28;20435;-76
2023/08/25 13:47:35;;;;;;;15.50;13.90;;;;;;;;;;4941052;28;20471;-80
2023/08/25 13:50:01;;;;;;;16.17;14.23;;;;;;;;;;4935522;29;20782;-79
2023/08/25 13:52:27;;;;;;;15.20;13.80;;;;;;;;;;4953173;28;20176;-79
2023/08/25 13:54:55;;;;;;;15.87;13.77;;;;;;;;;;4938461;28;20567;-79
2023/08/25 13:57:21;;;;;;;15.10;13.10;;;;;;;;;;4935978;29;20416;-78
2023/08/25 13:59:47;;;;;;;16.93;15.33;;;;;;;;;;4954541;28;20424;-80
2023/08/25 14:02:13;;;;;;;17.10;15.30;;;;;;;;;;4954617;28;20203;-79
2023/08/25 14:04:38;;;;;;;15.80;14.13;;;;;;;;;;4954529;29;20180;-79
2023/08/25 14:07:07;;;;;;;17.60;15.93;;;;;;;;;;4954414;28;20204;-78
2023/08/25 14:09:33;;;;;;;16.43;15.00;;;;;;;;;;4954050;28;20259;-78
2023/08/25 14:12:00;;;;;;;18.13;16.00;;;;;;;;;;4959502;28;20462;-77
2023/08/25 14:14:26;;;;;;;20.07;18.27;;;;;;;;;;4964480;28;20470;-77
2023/08/25 14:16:52;;;;;;;18.67;16.73;;;;;;;;;;4962918;28;20423;-77
2023/08/25 14:19:17;;;;;;;17.90;16.27;;;;;;;;;;4963230;28;20769;-77
2023/08/25 14:21:43;;;;;;;18.10;16.40;;;;;;;;;;4964461;28;20936;-78